createdAt,value
2023-04-04T00:01:06.362Z,4.33
2023-04-04T00:03:34.781Z,2.20
2023-04-04T00:06:04.330Z,2.93
2023-04-04T00:08:32.447Z,3.37
2023-04-04T00:11:01.287Z,2.73
2023-04-04T00:13:30.128Z,1.53
2023-04-04T00:15:59.195Z,2.33
2023-04-04T00:18:27.860Z,1.60
2023-04-04T00:20:56.217Z,2.33
2023-04-04T00:23:25.925Z,2.73
2023-04-04T00:25:54.803Z,2.93
2023-04-04T00:28:23.795Z,3.03
2023-04-04T00:30:52.187Z,2.17
2023-04-04T00:33:20.370Z,1.57
2023-04-04T00:35:50.523Z,3.10
2023-04-04T00:38:18.622Z,4.57
2023-04-04T00:40:50.773Z,2.07
2023-04-04T00:43:20.075Z,3.47
2023-04-04T00:45:48.712Z,6.50
2023-04-04T00:48:17.039Z,2.67
2023-04-04T00:50:45.151Z,2.73
2023-04-04T00:53:13.351Z,3.70
2023-04-04T00:55:43.407Z,1.00
2023-04-04T00:58:13.260Z,1.43
2023-04-04T01:00:41.696Z,2.70
2023-04-04T01:03:12.829Z,2.80
2023-04-04T01:05:41.870Z,1.83
2023-04-04T01:08:10.096Z,1.43
2023-04-04T01:10:38.826Z,1.63
2023-04-04T01:13:08.055Z,2.33
2023-04-04T01:15:37.881Z,3.63
2023-04-04T01:18:08.267Z,1.53
2023-04-04T01:20:42.048Z,1.23
2023-04-04T01:23:12.755Z,1.57
2023-04-04T01:25:42.938Z,1.30
2023-04-04T01:28:11.061Z,1.13
2023-04-04T01:30:42.519Z,1.60
2023-04-04T01:33:16.621Z,1.27
2023-04-04T01:35:52.446Z,2.80
2023-04-04T01:38:28.669Z,3.73
2023-04-04T01:41:04.721Z,2.47
2023-04-04T01:43:33.475Z,1.43
2023-04-04T01:46:02.335Z,6.13
2023-04-04T01:48:31.090Z,2.37
2023-04-04T01:50:59.571Z,2.17
2023-04-04T01:53:27.711Z,4.67
2023-04-04T01:55:57.206Z,3.70
2023-04-04T01:58:26.074Z,1.30
2023-04-04T02:00:54.138Z,3.63
2023-04-04T02:03:22.543Z,3.63
2023-04-04T02:05:50.728Z,5.33
2023-04-04T02:08:19.443Z,2.53
2023-04-04T02:10:47.581Z,3.13
2023-04-04T02:13:17.329Z,1.60
2023-04-04T02:15:45.424Z,1.00
2023-04-04T02:18:13.625Z,1.47
2023-04-04T02:20:41.889Z,2.77
2023-04-04T02:23:10.305Z,2.00
2023-04-04T02:25:38.670Z,3.23
2023-04-04T02:28:06.783Z,1.80
2023-04-04T02:30:36.561Z,1.90
2023-04-04T02:33:05.233Z,2.60
2023-04-04T02:35:33.372Z,1.67
2023-04-04T02:38:02.016Z,5.03
2023-04-04T02:40:30.399Z,2.20
2023-04-04T02:42:58.801Z,2.00
2023-04-04T02:45:26.896Z,2.53
2023-04-04T02:47:56.795Z,1.57
2023-04-04T02:50:25.048Z,2.67
2023-04-04T02:52:55.385Z,2.80
2023-04-04T02:55:24.406Z,3.93
2023-04-04T02:57:53.130Z,2.77
2023-04-04T03:00:22.079Z,3.57
2023-04-04T03:02:56.627Z,2.43
2023-04-04T03:05:26.058Z,2.97
2023-04-04T03:07:56.956Z,2.23
2023-04-04T03:10:25.719Z,2.83
2023-04-04T03:12:53.913Z,1.20
2023-04-04T03:15:22.589Z,1.53
2023-04-04T03:17:51.097Z,0.80
2023-04-04T03:20:21.941Z,1.47
2023-04-04T03:22:50.695Z,2.67
2023-04-04T03:25:18.828Z,1.00
2023-04-04T03:27:47.216Z,1.47
2023-04-04T03:30:15.816Z,2.50
2023-04-04T03:32:43.953Z,1.50
2023-04-04T03:35:13.301Z,3.13
2023-04-04T03:37:43.135Z,1.90
2023-04-04T03:40:11.769Z,1.37
2023-04-04T03:42:40.210Z,1.63
2023-04-04T03:45:09.347Z,1.50
2023-04-04T03:47:37.541Z,1.93
2023-04-04T03:50:06.711Z,3.37
2023-04-04T03:52:39.332Z,1.60
2023-04-04T03:55:10.166Z,3.83
2023-04-04T03:57:38.310Z,2.93
2023-04-04T04:00:07.458Z,1.97
2023-04-04T04:02:35.972Z,2.10
2023-04-04T04:05:04.524Z,1.37
2023-04-04T04:07:32.670Z,2.17
2023-04-04T04:10:00.749Z,1.80
2023-04-04T04:12:30.273Z,1.50
2023-04-04T04:14:58.356Z,2.07
2023-04-04T04:17:27.587Z,5.00
2023-04-04T04:19:56.368Z,1.97
2023-04-04T04:22:24.835Z,1.80
2023-04-04T04:24:52.920Z,2.00
2023-04-04T04:27:21.315Z,1.90
2023-04-04T04:29:50.784Z,1.20
2023-04-04T04:32:19.406Z,2.73
2023-04-04T04:34:48.051Z,3.53
2023-04-04T04:37:16.456Z,4.50
2023-04-04T04:39:44.521Z,2.07
2023-04-04T04:42:13.009Z,2.27
2023-04-04T04:44:41.069Z,1.67
2023-04-04T04:47:10.936Z,1.70
2023-04-04T04:49:39.014Z,2.70
2023-04-04T04:52:07.156Z,2.10
2023-04-04T04:54:35.251Z,4.10
2023-04-04T04:57:03.612Z,2.97
2023-04-04T04:59:32.010Z,6.13
2023-04-04T05:02:00.134Z,3.57
2023-04-04T05:04:29.795Z,3.20
2023-04-04T05:06:57.917Z,2.63
2023-04-04T05:09:26.275Z,1.77
2023-04-04T05:11:54.339Z,3.37
2023-04-04T05:14:22.445Z,2.13
2023-04-04T05:16:50.880Z,3.60
2023-04-04T05:19:19.118Z,2.70
2023-04-04T05:21:48.611Z,3.37
2023-04-04T05:24:17.261Z,4.13
2023-04-04T05:26:45.547Z,3.93
2023-04-04T05:29:13.944Z,2.80
2023-04-04T05:31:42.270Z,4.80
2023-04-04T05:34:10.559Z,5.00
2023-04-04T05:36:38.944Z,2.30
2023-04-04T05:39:08.481Z,2.70
2023-04-04T05:41:36.850Z,3.93
2023-04-04T05:44:04.953Z,2.53
2023-04-04T05:46:33.356Z,3.53
2023-04-04T05:49:01.492Z,2.97
2023-04-04T05:51:29.987Z,3.50
2023-04-04T05:53:58.567Z,2.23
2023-04-04T05:56:28.361Z,3.27
2023-04-04T05:58:56.439Z,2.07
2023-04-04T06:01:25.521Z,3.93
2023-04-04T06:03:53.606Z,2.43
2023-04-04T06:06:22.192Z,4.97
2023-04-04T06:08:53.769Z,3.50
2023-04-04T06:11:23.453Z,3.70
2023-04-04T06:13:54.890Z,4.87
2023-04-04T06:16:23.455Z,4.50
2023-04-04T06:18:51.676Z,1.87
2023-04-04T06:21:20.026Z,4.30
2023-04-04T06:23:48.122Z,5.30
2023-04-04T06:26:16.645Z,3.10
2023-04-04T06:28:50.207Z,2.80
2023-04-04T06:31:19.757Z,3.10
2023-04-04T06:33:47.838Z,3.10
2023-04-04T06:36:16.152Z,5.57
2023-04-04T06:38:44.608Z,3.30
2023-04-04T06:41:13.247Z,3.63
2023-04-04T06:43:41.895Z,2.43
2023-04-04T06:46:10.637Z,2.30
2023-04-04T06:48:40.539Z,1.13
2023-04-04T06:51:09.192Z,2.33
2023-04-04T06:53:37.340Z,2.60
2023-04-04T06:56:05.843Z,2.58
2023-04-04T06:58:33.945Z,1.67
2023-04-04T07:01:03.327Z,2.35
2023-04-04T07:03:32.070Z,2.78
2023-04-04T07:06:04.435Z,4.00
2023-04-04T07:08:36.187Z,5.25
2023-04-04T07:11:05.174Z,1.88
2023-04-04T07:13:33.628Z,2.25
2023-04-04T07:16:01.848Z,3.65
2023-04-04T07:18:30.369Z,3.92
2023-04-04T07:20:59.738Z,4.35
2023-04-04T07:23:29.171Z,4.15
2023-04-04T07:25:57.612Z,3.55
2023-04-04T07:28:26.154Z,3.15
2023-04-04T07:30:54.272Z,1.95
2023-04-04T07:33:22.674Z,3.30
2023-04-04T07:35:50.757Z,2.88
2023-04-04T07:38:18.958Z,4.07
2023-04-04T07:40:50.284Z,1.63
2023-04-04T07:43:18.361Z,2.17
2023-04-04T07:45:46.968Z,2.92
2023-04-04T07:48:15.373Z,5.57
2023-04-04T07:50:43.468Z,3.58
2023-04-04T07:53:11.638Z,3.40
2023-04-04T07:55:40.044Z,3.25
2023-04-04T07:58:09.509Z,3.42
2023-04-04T08:00:38.124Z,1.77
2023-04-04T08:03:06.469Z,5.60
2023-04-04T08:05:34.916Z,1.92
2023-04-04T08:08:03.041Z,1.30
2023-04-04T08:10:31.454Z,2.30
2023-04-04T08:12:59.585Z,2.55
2023-04-04T08:15:30.823Z,2.78
2023-04-04T08:17:59.239Z,3.03
2023-04-04T08:20:28.292Z,1.90
2023-04-04T08:22:56.689Z,2.33
2023-04-04T08:25:25.059Z,2.83
2023-04-04T08:27:53.193Z,2.90
2023-04-04T08:30:21.861Z,2.65
2023-04-04T08:32:51.367Z,1.88
2023-04-04T08:35:19.675Z,3.17
2023-04-04T08:37:48.231Z,2.53
2023-04-04T08:40:17.109Z,1.60
2023-04-04T08:42:46.358Z,2.28
2023-04-04T08:45:18.992Z,0.70
2023-04-04T08:47:50.315Z,0.82
2023-04-04T08:50:21.557Z,1.48
2023-04-04T08:52:50.553Z,2.72
2023-04-04T08:55:20.210Z,2.53
2023-04-04T08:57:48.431Z,1.48
2023-04-04T09:00:18.180Z,1.45
2023-04-04T09:02:54.021Z,2.13
2023-04-04T09:05:23.984Z,4.20
2023-04-04T09:07:52.687Z,1.70
2023-04-04T09:10:21.542Z,1.52
2023-04-04T09:12:52.534Z,1.38
2023-04-04T09:15:22.323Z,1.63
2023-04-04T09:17:50.755Z,0.88
2023-04-04T09:20:41.114Z,1.05
2023-04-04T09:23:11.723Z,1.25
2023-04-04T09:25:56.244Z,2.63
2023-04-04T09:28:31.594Z,3.25
2023-04-04T09:31:01.960Z,1.88
2023-04-04T09:33:30.935Z,1.23
2023-04-04T09:36:03.676Z,2.53
2023-04-04T09:38:32.614Z,1.02
2023-04-04T09:41:01.182Z,0.80
2023-04-04T09:43:32.704Z,0.75
2023-04-04T09:46:02.358Z,1.48
2023-04-04T09:48:33.828Z,1.63
2023-04-04T09:51:06.973Z,2.10
2023-04-04T09:53:37.810Z,2.10
2023-04-04T09:56:07.361Z,1.17
2023-04-04T09:58:36.655Z,1.42
2023-04-04T10:01:08.731Z,1.52
2023-04-04T10:03:39.372Z,3.28
2023-04-04T10:06:11.151Z,3.03
2023-04-04T10:08:41.853Z,1.40
2023-04-04T10:11:12.295Z,1.85
2023-04-04T10:13:44.314Z,1.23
2023-04-04T10:16:12.664Z,1.33
2023-04-04T10:18:41.807Z,1.85
2023-04-04T10:21:15.592Z,1.17
2023-04-04T10:23:46.809Z,2.42
2023-04-04T10:26:15.393Z,1.17
2023-04-04T10:28:44.315Z,2.10
2023-04-04T10:31:19.941Z,2.08
2023-04-04T10:33:56.800Z,1.60
2023-04-04T10:36:30.559Z,1.98
2023-04-04T10:39:06.361Z,3.25
2023-04-04T10:41:35.400Z,2.38
2023-04-04T10:44:14.552Z,2.55
2023-04-04T10:46:45.181Z,2.97
2023-04-04T10:49:14.100Z,2.67
2023-04-04T10:51:55.143Z,0.82
2023-04-04T10:54:26.277Z,2.45
2023-04-04T10:56:55.585Z,0.57
2023-04-04T10:59:26.854Z,2.15
2023-04-04T11:01:58.870Z,2.53
2023-04-04T11:04:35.386Z,1.45
2023-04-04T11:07:12.324Z,1.98
2023-04-04T11:09:54.575Z,1.13
2023-04-04T11:12:24.417Z,2.00
2023-04-04T11:15:08.145Z,3.00
2023-04-04T11:17:43.728Z,2.85
2023-04-04T11:20:15.939Z,2.38
2023-04-04T11:22:46.009Z,1.80
2023-04-04T11:25:33.205Z,1.13
2023-04-04T11:28:06.890Z,0.93
2023-04-04T11:30:44.073Z,1.45
2023-04-04T11:33:15.296Z,1.98
2023-04-04T11:35:51.200Z,1.20
2023-04-04T11:38:22.231Z,2.33
2023-04-04T11:40:57.008Z,0.95
2023-04-04T11:43:27.150Z,2.78
2023-04-04T11:45:56.591Z,2.30
2023-04-04T11:48:25.394Z,1.10
2023-04-04T11:50:54.660Z,2.00
2023-04-04T11:53:24.399Z,1.25
2023-04-04T11:55:53.050Z,2.70
2023-04-04T11:58:21.217Z,1.67
2023-04-04T12:00:50.617Z,2.38
2023-04-04T12:03:19.537Z,3.10
2023-04-04T12:05:48.645Z,1.23
2023-04-04T12:08:18.199Z,1.33
2023-04-04T12:10:49.344Z,0.98
2023-04-04T12:13:17.819Z,0.98
2023-04-04T12:15:48.952Z,2.95
2023-04-04T12:18:23.231Z,1.17
2023-04-04T12:20:52.836Z,3.83
2023-04-04T12:23:21.898Z,2.35
2023-04-04T12:25:54.901Z,1.67
2023-04-04T12:28:23.876Z,2.00
2023-04-04T12:30:53.006Z,1.48
2023-04-04T12:33:21.678Z,1.77
2023-04-04T12:35:54.874Z,1.92
2023-04-04T12:38:23.544Z,4.00
2023-04-04T12:40:53.755Z,1.77
2023-04-04T12:43:21.819Z,1.02
2023-04-04T12:45:52.163Z,1.33
2023-04-04T12:48:21.436Z,1.25
2023-04-04T12:50:54.280Z,0.70
2023-04-04T12:55:58.079Z,2.72
2023-04-04T12:58:28.405Z,0.80
2023-04-04T13:01:00.319Z,2.35
2023-04-04T13:03:29.472Z,1.80
2023-04-04T13:05:59.443Z,1.25
2023-04-04T13:08:28.057Z,0.60
2023-04-04T13:11:04.963Z,1.20
2023-04-04T13:13:35.366Z,1.63
2023-04-04T13:16:04.904Z,0.77
2023-04-04T13:18:38.641Z,0.82
2023-04-04T13:21:08.807Z,1.88
2023-04-04T13:23:39.538Z,1.55
2023-04-04T13:26:11.256Z,1.17
2023-04-04T13:28:39.720Z,1.60
2023-04-04T13:31:10.015Z,1.67
2023-04-04T13:33:38.958Z,2.40
2023-04-04T13:36:07.982Z,1.25
2023-04-04T13:38:36.101Z,4.15
2023-04-04T13:41:04.528Z,2.70
2023-04-04T13:43:34.079Z,1.05
2023-04-04T13:46:02.664Z,2.05
2023-04-04T13:48:31.311Z,0.93
2023-04-04T13:50:59.387Z,0.85
2023-04-04T13:53:27.521Z,3.45
2023-04-04T13:58:27.298Z,1.58
2023-04-04T14:00:57.424Z,1.35
2023-04-04T14:03:25.868Z,0.85
2023-04-04T14:05:53.969Z,1.30
2023-04-04T14:08:22.333Z,0.80
2023-04-04T14:10:50.459Z,2.25
2023-04-04T14:13:20.114Z,2.53
2023-04-04T14:15:49.195Z,0.47
2023-04-04T14:18:19.101Z,2.03
2023-04-04T14:20:47.993Z,1.75
2023-04-04T14:23:16.157Z,1.33
2023-04-04T14:25:44.220Z,0.73
2023-04-04T14:28:12.365Z,4.00
2023-04-04T14:30:40.590Z,3.20
2023-04-04T14:33:09.077Z,0.90
2023-04-04T14:35:38.882Z,1.33
2023-04-04T14:38:07.319Z,2.65
2023-04-04T14:40:35.448Z,1.13
2023-04-04T14:43:03.562Z,2.72
2023-04-04T14:45:32.215Z,2.33
2023-04-04T14:48:00.648Z,1.70
2023-04-04T14:50:28.852Z,1.98
2023-04-04T14:52:58.345Z,1.55
2023-04-04T14:55:27.099Z,5.25
2023-04-04T14:58:02.011Z,3.03
2023-04-04T15:00:31.094Z,1.63
2023-04-04T15:02:59.812Z,3.65
2023-04-04T15:05:28.274Z,1.58
2023-04-04T15:07:57.980Z,1.08
2023-04-04T15:10:26.491Z,1.85
2023-04-04T15:12:55.310Z,1.50
2023-04-04T15:15:24.081Z,2.78
2023-04-04T15:17:52.748Z,0.90
2023-04-04T15:20:20.958Z,3.17
2023-04-04T15:22:49.107Z,3.90
2023-04-04T15:25:18.654Z,1.00
2023-04-04T15:27:46.754Z,1.67
2023-04-04T15:30:15.951Z,2.03
2023-04-04T15:32:44.156Z,2.75
2023-04-04T15:35:18.293Z,2.08
2023-04-04T15:37:46.599Z,1.88
2023-04-04T15:40:15.546Z,1.92
2023-04-04T15:42:45.697Z,3.20
2023-04-04T15:45:15.242Z,2.80
2023-04-04T15:47:45.192Z,2.83
2023-04-04T15:50:13.665Z,1.75
2023-04-04T15:52:42.116Z,1.95
2023-04-04T15:55:13.552Z,1.75
2023-04-04T15:57:44.600Z,2.92
2023-04-04T16:00:18.172Z,0.93
2023-04-04T16:02:46.442Z,2.05
2023-04-04T16:05:14.910Z,3.13
2023-04-04T16:07:43.662Z,1.92
2023-04-04T16:10:12.187Z,1.60
2023-04-04T16:12:40.261Z,1.50
2023-04-04T16:15:09.905Z,2.35
2023-04-04T16:17:39.386Z,3.15
2023-04-04T16:20:09.191Z,2.08
2023-04-04T16:22:37.830Z,1.88
2023-04-04T16:25:08.819Z,1.17
2023-04-04T16:27:37.766Z,2.80
2023-04-04T16:30:07.043Z,3.70
2023-04-04T16:32:35.863Z,1.48
2023-04-04T16:35:05.807Z,2.17
2023-04-04T16:37:34.179Z,2.33
2023-04-04T16:40:02.298Z,1.42
2023-04-04T16:42:30.405Z,1.73
2023-04-04T16:44:58.920Z,1.90
2023-04-04T16:47:28.292Z,2.30
2023-04-04T16:49:56.605Z,3.13
2023-04-04T16:52:26.115Z,3.35
2023-04-04T16:54:55.404Z,4.75
2023-04-04T16:57:23.822Z,2.40
2023-04-04T16:59:52.057Z,3.75
2023-04-04T17:02:20.198Z,4.57
2023-04-04T17:04:48.349Z,2.53
2023-04-04T17:07:16.441Z,1.35
2023-04-04T17:09:48.173Z,2.70
2023-04-04T17:12:16.953Z,1.05
2023-04-04T17:14:45.362Z,2.35
2023-04-04T17:17:13.510Z,2.35
2023-04-04T17:19:41.655Z,1.13
2023-04-04T17:22:09.746Z,2.03
2023-04-04T17:24:38.159Z,2.40
2023-04-04T17:27:07.926Z,1.65
2023-04-04T17:29:36.087Z,1.05
2023-04-04T17:32:05.142Z,7.88
2023-04-04T17:34:33.313Z,8.95
2023-04-04T17:37:02.466Z,6.63
2023-04-04T17:39:30.549Z,6.55
2023-04-04T17:41:59.130Z,6.70
2023-04-04T17:44:28.616Z,4.25
2023-04-04T17:46:56.735Z,6.65
2023-04-04T17:49:24.814Z,3.55
2023-04-04T17:51:53.562Z,2.35
2023-04-04T17:54:23.108Z,2.95
2023-04-04T17:56:51.219Z,3.15
2023-04-04T17:59:19.614Z,4.63
2023-04-04T18:01:49.164Z,7.32
2023-04-04T18:04:17.692Z,4.60
2023-04-04T18:06:46.005Z,9.75
2023-04-04T18:09:14.169Z,9.70
2023-04-04T18:11:42.555Z,7.82
2023-04-04T18:14:10.980Z,9.68
2023-04-04T18:16:41.039Z,5.70
2023-04-04T18:19:11.447Z,6.55
2023-04-04T18:21:39.536Z,6.82
2023-04-04T18:24:11.435Z,5.65
2023-04-04T18:26:39.807Z,5.60
2023-04-04T18:29:08.382Z,5.80
2023-04-04T18:31:36.968Z,8.10
2023-04-04T18:34:05.191Z,5.43
2023-04-04T18:36:36.333Z,6.15
2023-04-04T18:39:04.754Z,4.28
2023-04-04T18:41:33.810Z,7.07
2023-04-04T18:44:02.038Z,9.45
2023-04-04T18:46:30.198Z,4.57
2023-04-04T18:48:58.352Z,7.63
2023-04-04T18:51:26.672Z,5.97
2023-04-04T18:53:56.856Z,4.07
2023-04-04T18:56:25.601Z,5.00
2023-04-04T18:58:53.761Z,4.82
2023-04-04T19:01:22.500Z,3.35
2023-04-04T19:03:51.856Z,5.38
2023-04-04T19:06:20.188Z,3.95
2023-04-04T19:08:49.879Z,3.60
2023-04-04T19:11:21.389Z,4.85
2023-04-04T19:13:49.914Z,3.17
2023-04-04T19:16:19.227Z,3.03
2023-04-04T19:18:47.889Z,3.83
2023-04-04T19:21:16.181Z,2.65
2023-04-04T19:23:44.475Z,3.03
2023-04-04T19:26:12.678Z,2.97
2023-04-04T19:28:43.566Z,2.70
2023-04-04T19:31:11.916Z,4.82
2023-04-04T19:33:40.864Z,2.10
2023-04-04T19:36:11.141Z,5.10
2023-04-04T19:38:42.770Z,3.90
2023-04-04T19:41:24.604Z,2.85
2023-04-04T19:43:54.089Z,4.82
2023-04-04T19:46:26.915Z,3.40
2023-04-04T19:48:56.247Z,3.60
2023-04-04T19:51:42.629Z,3.00
2023-04-04T19:54:17.863Z,4.15
2023-04-04T19:56:51.221Z,2.45
2023-04-04T19:59:59.417Z,2.40
2023-04-04T20:02:56.930Z,3.90
2023-04-04T20:05:59.650Z,4.30
2023-04-04T20:08:36.528Z,4.03
2023-04-04T20:11:06.904Z,5.38
2023-04-04T20:13:37.177Z,4.82
2023-04-04T20:16:08.509Z,5.57
2023-04-04T20:18:38.157Z,5.22
2023-04-04T20:21:14.513Z,4.32
2023-04-04T20:23:45.583Z,4.05
2023-04-04T20:26:16.544Z,5.70
2023-04-04T20:28:47.087Z,5.57
2023-04-04T20:31:19.730Z,5.85
2023-04-04T20:33:48.349Z,5.93
2023-04-04T20:36:33.072Z,5.38
2023-04-04T20:39:01.686Z,4.30
2023-04-04T20:41:30.245Z,6.97
2023-04-04T20:43:59.905Z,9.45
2023-04-04T20:46:32.822Z,12.52
2023-04-04T20:49:01.771Z,14.65
2023-04-04T20:51:32.148Z,13.75
2023-04-04T20:54:02.286Z,15.80
2023-04-04T20:56:52.437Z,12.32
2023-04-04T20:59:45.032Z,6.65
2023-04-04T21:02:20.932Z,8.38
2023-04-04T21:04:52.322Z,7.68
2023-04-04T21:07:37.093Z,6.38
2023-04-04T21:10:23.809Z,4.88
2023-04-04T21:12:52.600Z,5.28
2023-04-04T21:15:23.665Z,3.78
2023-04-04T21:17:53.341Z,5.57
2023-04-04T21:21:00.621Z,6.63
2023-04-04T21:23:33.657Z,8.35
2023-04-04T21:26:03.481Z,7.95
2023-04-04T21:28:34.890Z,9.50
2023-04-04T21:31:12.374Z,7.05
2023-04-04T21:33:43.711Z,7.00
2023-04-04T21:36:18.893Z,6.85
2023-04-04T21:38:47.048Z,7.85
2023-04-04T21:41:26.112Z,6.75
2023-04-04T21:43:54.923Z,7.15
2023-04-04T21:46:24.310Z,5.57
2023-04-04T21:48:54.219Z,7.00
2023-04-04T21:51:22.595Z,8.45
2023-04-04T21:53:51.177Z,7.40
2023-04-04T21:56:19.637Z,12.88
2023-04-04T21:58:48.200Z,10.93
2023-04-04T22:01:16.454Z,14.68
2023-04-04T22:03:44.626Z,13.80
2023-04-04T22:06:14.123Z,15.60
2023-04-04T22:08:42.626Z,12.07
2023-04-04T22:11:18.967Z,9.75
2023-04-04T22:13:48.358Z,12.75
2023-04-04T22:16:17.768Z,11.90
2023-04-04T22:18:48.730Z,10.80
2023-04-04T22:21:18.956Z,8.45
2023-04-04T22:23:47.028Z,6.97
2023-04-04T22:26:20.744Z,6.03
2023-04-04T22:28:50.210Z,9.02
2023-04-04T22:31:18.286Z,5.95
2023-04-04T22:33:46.586Z,6.93
2023-04-04T22:36:16.056Z,3.67
2023-04-04T22:38:45.917Z,4.78
2023-04-04T22:41:13.992Z,3.58
2023-04-04T22:43:42.356Z,3.75
2023-04-04T22:46:10.688Z,3.90
2023-04-04T22:48:41.502Z,3.70
2023-04-04T22:51:10.088Z,6.05
2023-04-04T22:53:38.573Z,2.67
2023-04-04T22:56:08.457Z,4.63
2023-04-04T22:58:36.861Z,4.10
2023-04-04T23:01:05.098Z,4.47
2023-04-04T23:03:33.332Z,4.70
2023-04-04T23:06:01.450Z,5.85
2023-04-04T23:08:29.559Z,4.07
2023-04-04T23:10:57.669Z,3.60
2023-04-04T23:13:27.237Z,4.07
2023-04-04T23:15:55.635Z,4.43
2023-04-04T23:18:24.675Z,4.68
2023-04-04T23:20:53.827Z,2.70
2023-04-04T23:23:22.292Z,6.25
2023-04-04T23:25:50.495Z,4.00
2023-04-04T23:28:18.577Z,6.70
2023-04-04T23:30:48.450Z,3.38
2023-04-04T23:33:16.664Z,5.95
2023-04-04T23:35:44.792Z,3.77
2023-04-04T23:38:13.538Z,4.72
2023-04-04T23:40:42.236Z,4.60
2023-04-04T23:43:10.794Z,3.10
2023-04-04T23:45:41.642Z,3.33
2023-04-04T23:48:11.207Z,3.58
2023-04-04T23:50:39.537Z,4.23
2023-04-04T23:53:08.268Z,4.28
2023-04-04T23:55:36.721Z,8.55
2023-04-04T23:58:05.409Z,3.05
